MMGL/GDL METAR and TAF weather

Enter ICAO airport designator
Station Type Date Time Source
MMGL METAR 2020/04/08 19:48 UTC NOAA

MMGL 081948Z 21007KT 10SM FEW300 32/M02 A3015 RMK 8/001


Station Type Date Time Source
MMGL Decoded METAR 2020/04/08 19:48 UTC NOAA

Don Miguel / Guadalaj, Mexico (MMGL) 20-31N 103-19W
Apr 08, 2020 - 03:48 PM EDT / 2020.04.08 1948 UTC
Wind: from the SSW (210 degrees) at 8 MPH (7 KT):0
Visibility: 10 mile(s):0
Sky conditions: mostly clear
Temperature: 89 F (32 C)
Dew Point: 28 F (-2 C)
Relative Humidity: 11%
Pressure (altimeter): 30.15 in. Hg (1020 hPa)
ob: MMGL 081948Z 21007KT 10SM FEW300 32/M02 A3015 RMK 8/001
cycle: 20

Station Type Date Time Source
MMGL TAF 2020/04/08 18:51 UTC NOAA

TAF TAF MMGL 081648Z 0818/0924 26010KT P6SM SKC TX32/0820Z TN12/0912Z
BECMG 0901/0902 00000KT
FM091700 29010KT P6SM SKC

Example: see airport list